Roanoke — WDD9656 — position and weather

sailwx.info

Track history (hours):
 
Tides and Currents Weather Stations Pressure Air Temp Water Temp Dewpoint Dewpoint Depression Visibility Wind Speed Wind Dir Waves Ship Positions

Roanoke

Owner: Vane Line Bunkering, Baltimore, MD. More information available from US FCC via Universal Licensing System and Coast Guard Vessel Documentation Center.

Last reported at 2016-Apr-30 00:31 UTC. Time now 2016-Apr-30 01:27 UTC.
Position N 36°48' W 076°18'.

Length 32 m; draft 13 m.

Type: Towing. MMSI: 367314510.

Date/timePositionNaut miles runAvg speedWind from/ knotsBaromVisibWave heightAir tempDewpointWater temp
2016-Apr-30 00:31N 36°48' W 076°18'0 0.0
2016-Apr-29 23:32N 36°48' W 076°18'0 0.1
2016-Apr-29 22:32N 36°48' W 076°18'0 0.0
2016-Apr-29 21:33N 36°48' W 076°18'0 0.0
2016-Apr-29 20:31N 36°48' W 076°18'0 0.0
2016-Apr-29 19:31N 36°48' W 076°18'0 0.0
2016-Apr-29 18:32N 36°48' W 076°18'0 0.0
2016-Apr-29 17:33N 36°48' W 076°18'0 0.2
2016-Apr-29 16:31N 36°48' W 076°18'0 0.0
2016-Apr-29 15:32N 36°48' W 076°18'0 0.0
2016-Apr-29 14:33N 36°48' W 076°18'0 0.2
2016-Apr-29 13:31N 36°48' W 076°18'0 0.0
2016-Apr-29 12:31N 36°48' W 076°18'0 0.0
2016-Apr-29 11:32N 36°48' W 076°18'0 0.0
2016-Apr-29 10:33N 36°48' W 076°18'0 0.0
2016-Apr-29 09:33N 36°48' W 076°18'0 0.0
2016-Apr-29 08:31N 36°48' W 076°18'0 0.0
2016-Apr-29 07:32N 36°48' W 076°18'0 0.0
2016-Apr-29 02:14N 36°48' W 076°18'0 0.0
2016-Apr-29 01:33N 36°48' W 076°18'72 8.0
2016-Apr-28 16:33N 37°60' W 076°20'9 9.2
2016-Apr-28 15:33N 38°05' W 076°29'45 6.4
2016-Apr-28 08:33N 38°37' W 077°10'8 8.3
2016-Apr-28 07:34N 38°43' W 077°02'9 9.2
2016-Apr-28 06:33N 38°52' W 077°01'0 0.4
2016-Apr-28 05:31N 38°52' W 077°00'0 0.0
2016-Apr-28 04:32N 38°52' W 077°00'0 0.0
2016-Apr-28 03:32N 38°52' W 077°00'0 0.0
2016-Apr-28 02:30N 38°52' W 077°00'0 0.0
2016-Apr-28 01:31N 38°52' W 077°00'0 0.0
2016-Apr-28 00:31N 38°52' W 077°00'0 0.0
2016-Apr-27 23:32N 38°52' W 077°00'0 0.0
2016-Apr-27 22:33N 38°52' W 077°00'0 0.0
2016-Apr-27 21:33N 38°52' W 077°00'0 0.0
2016-Apr-27 20:31N 38°52' W 077°00'0 0.0
2016-Apr-27 19:32N 38°52' W 077°00'0 0.0
2016-Apr-27 18:33N 38°52' W 077°00'0 0.0
2016-Apr-27 17:33N 38°52' W 077°00'0 0.0
2016-Apr-27 16:31N 38°52' W 077°00'0 0.0
2016-Apr-27 15:31N 38°52' W 077°00'0 0.0
2016-Apr-27 14:32N 38°52' W 077°00'0 0.0
2016-Apr-27 13:33N 38°52' W 077°00'0 0.0
2016-Apr-27 12:31N 38°52' W 077°00'0 0.0
2016-Apr-27 11:32N 38°52' W 077°00'0 0.0
2016-Apr-27 10:32N 38°52' W 077°00'0 0.0
2016-Apr-27 09:33N 38°52' W 077°00'0 0.0
2016-Apr-27 08:33N 38°52' W 077°00'0 0.0
2016-Apr-27 07:31N 38°52' W 077°00'0 0.0
2016-Apr-27 06:31N 38°52' W 077°00'0 0.0
2016-Apr-27 05:32N 38°52' W 077°00'0 0.0
2016-Apr-27 04:33N 38°52' W 077°00'0 0.0
2016-Apr-27 03:33N 38°52' W 077°00'0 0.0
2016-Apr-27 02:31N 38°52' W 077°00'6 6.0
2016-Apr-27 01:33N 38°46' W 077°02'7 7.0
2016-Apr-27 00:33N 38°41' W 077°07'42 4.5
2016-Apr-26 15:11N 38°08' W 076°34'4 6.9
2016-Apr-26 14:33N 38°06' W 076°29'7 6.8
2016-Apr-26 13:31N 38°01' W 076°22'5 5.0
2016-Apr-26 12:33N 38°04' W 076°17'48 6.9
2016-Apr-26 05:33N 38°52' W 076°26'8 7.6
2016-Apr-26 04:33N 38°59' W 076°23'7 7.5
2016-Apr-26 03:33N 39°06' W 076°24'7 6.9
2016-Apr-26 02:33N 39°12' W 076°29'5 4.7
2016-Apr-26 01:30N 39°15' W 076°34'0 0.0
2016-Apr-26 00:33N 39°15' W 076°34'0 0.0
2016-Apr-25 23:31N 39°15' W 076°34'0 0.0
2016-Apr-25 22:32N 39°15' W 076°34'0 0.0
2016-Apr-25 21:33N 39°15' W 076°34'0 0.0
2016-Apr-25 20:33N 39°15' W 076°34'0 0.0
2016-Apr-25 19:31N 39°15' W 076°34'0 0.0
2016-Apr-25 17:15N 39°15' W 076°34'0 0.0
2016-Apr-25 16:30N 39°15' W 076°34'0 0.0
2016-Apr-25 15:25N 39°15' W 076°34'0 0.0
2016-Apr-25 14:31N 39°15' W 076°34'0 0.4
2016-Apr-25 13:33N 39°15' W 076°34'0 0.2
2016-Apr-25 12:32N 39°15' W 076°34'0 0.0
2016-Apr-25 11:33N 39°15' W 076°34'5 4.6
2016-Apr-25 10:33N 39°12' W 076°30'8 8.1
2016-Apr-25 09:33N 39°14' W 076°20'9 8.6
2016-Apr-25 08:34N 39°20' W 076°12'10 9.8
2016-Apr-25 07:31N 39°26' W 076°01'1010.3
2016-Apr-25 06:34N 39°32' W 075°51'1010.3
2016-Apr-25 05:34N 39°33' W 075°37'6 5.6
2016-Apr-25 04:34N 39°38' W 075°34'7 7.4
2016-Apr-25 03:34N 39°45' W 075°30'8 8.0
2016-Apr-25 02:34N 39°50' W 075°22'10 9.7
2016-Apr-25 01:34N 39°53' W 075°10'9 9.0
2016-Apr-25 00:34N 40°00' W 075°03'9 0.6
2016-Apr-24 08:18N 40°05' W 074°52'4 5.7
2016-Apr-24 07:33N 40°03' W 074°58'9 8.5
2016-Apr-24 06:33N 39°58' W 075°07'3 2.9
2016-Apr-24 05:32N 39°56' W 075°08'0 0.0
2016-Apr-24 04:33N 39°56' W 075°08'0 0.1
2016-Apr-24 03:33N 39°55' W 075°08'0 0.2
2016-Apr-24 02:31N 39°55' W 075°08'0 0.0
2016-Apr-24 01:32N 39°55' W 075°08'0 0.0
2016-Apr-24 00:32N 39°55' W 075°08'0 0.0
2016-Apr-23 23:33N 39°55' W 075°08'0 0.0
2016-Apr-23 22:31N 39°55' W 075°08'0 0.1
2016-Apr-23 21:33N 39°55' W 075°08'3 2.8
2016-Apr-23 20:33N 39°53' W 075°10'6 6.0
2016-Apr-23 19:33N 39°51' W 075°17'7 7.1
2016-Apr-23 18:33N 39°48' W 075°25'8 7.6
2016-Apr-23 17:33N 39°42' W 075°31'7 7.0
2016-Apr-23 16:33N 39°35' W 075°33'6 5.8
2016-Apr-23 15:33N 39°33' W 075°40'7 7.1
2016-Apr-23 14:33N 39°32' W 075°50'9 8.7
2016-Apr-23 13:33N 39°27' W 075°59'9 9.2
2016-Apr-23 12:33N 39°22' W 076°09'9 8.5
2016-Apr-23 11:32N 39°14' W 076°14'8 8.1
2016-Apr-23 10:33N 39°08' W 076°20'9 8.6
2016-Apr-23 09:33N 38°59' W 076°23'9 8.6
2016-Apr-23 08:33N 38°51' W 076°26'120 3.6
2016-Apr-21 23:33N 36°51' W 076°18'3 3.3
2016-Apr-21 22:33N 36°48' W 076°18'0 0.0
2016-Apr-21 21:31N 36°48' W 076°18'0 0.0
2016-Apr-21 20:31N 36°48' W 076°18'0 0.0
2016-Apr-21 19:32N 36°48' W 076°18'0 0.0
2016-Apr-21 18:33N 36°48' W 076°18'0 0.0
2016-Apr-21 17:33N 36°48' W 076°18'0 0.0
2016-Apr-21 16:31N 36°48' W 076°18'0 0.0
2016-Apr-21 15:32N 36°48' W 076°18'0 0.0
2016-Apr-21 14:32N 36°48' W 076°18'0 0.0
2016-Apr-21 13:33N 36°48' W 076°18'0 0.0
2016-Apr-21 12:31N 36°48' W 076°18'0 0.0
2016-Apr-21 11:31N 36°48' W 076°18'0 0.0
2016-Apr-21 10:32N 36°48' W 076°18'0 0.0
2016-Apr-21 09:33N 36°48' W 076°18'0 0.0
2016-Apr-21 08:33N 36°48' W 076°18'0 0.0
2016-Apr-21 07:31N 36°48' W 076°18'0 0.0
2016-Apr-21 06:32N 36°48' W 076°18'0 0.0
2016-Apr-21 05:32N 36°48' W 076°18'0 0.0
2016-Apr-21 04:33N 36°48' W 076°18'0 0.0
2016-Apr-21 03:34N 36°48' W 076°18'0 0.0
2016-Apr-21 02:31N 36°48' W 076°18'0 0.0
2016-Apr-21 01:32N 36°48' W 076°18'0 0.0
2016-Apr-21 00:33N 36°48' W 076°18'1 1.5
2016-Apr-20 23:34N 36°49' W 076°17'  
Track history (hours):
 
Tides and Currents Weather Stations Pressure Air Temp Water Temp Dewpoint Dewpoint Depression Visibility Wind Speed Wind Dir Waves Ship Positions

Roanoke

Owner: Vane Line Bunkering, Baltimore, MD. More information available from US FCC via Universal Licensing System and Coast Guard Vessel Documentation Center.

Last reported at 2016-Apr-30 00:31 UTC. Time now 2016-Apr-30 01:27 UTC.
Position N 36°48' W 076°18'.

Length 32 m; draft 13 m.

Type: Towing. MMSI: 367314510.

Date/timePositionNaut miles runAvg speedWind from/ knotsBaromVisibWave heightAir tempDewpointWater temp
2016-Apr-30 00:31N 36°48' W 076°18'0 0.0
2016-Apr-29 23:32N 36°48' W 076°18'0 0.1
2016-Apr-29 22:32N 36°48' W 076°18'0 0.0
2016-Apr-29 21:33N 36°48' W 076°18'0 0.0
2016-Apr-29 20:31N 36°48' W 076°18'0 0.0
2016-Apr-29 19:31N 36°48' W 076°18'0 0.0
2016-Apr-29 18:32N 36°48' W 076°18'0 0.0
2016-Apr-29 17:33N 36°48' W 076°18'0 0.2
2016-Apr-29 16:31N 36°48' W 076°18'0 0.0
2016-Apr-29 15:32N 36°48' W 076°18'0 0.0
2016-Apr-29 14:33N 36°48' W 076°18'0 0.2
2016-Apr-29 13:31N 36°48' W 076°18'0 0.0
2016-Apr-29 12:31N 36°48' W 076°18'0 0.0
2016-Apr-29 11:32N 36°48' W 076°18'0 0.0
2016-Apr-29 10:33N 36°48' W 076°18'0 0.0
2016-Apr-29 09:33N 36°48' W 076°18'0 0.0
2016-Apr-29 08:31N 36°48' W 076°18'0 0.0
2016-Apr-29 07:32N 36°48' W 076°18'0 0.0
2016-Apr-29 02:14N 36°48' W 076°18'0 0.0
2016-Apr-29 01:33N 36°48' W 076°18'72 8.0
2016-Apr-28 16:33N 37°60' W 076°20'9 9.2
2016-Apr-28 15:33N 38°05' W 076°29'45 6.4
2016-Apr-28 08:33N 38°37' W 077°10'8 8.3
2016-Apr-28 07:34N 38°43' W 077°02'9 9.2
2016-Apr-28 06:33N 38°52' W 077°01'0 0.4
2016-Apr-28 05:31N 38°52' W 077°00'0 0.0
2016-Apr-28 04:32N 38°52' W 077°00'0 0.0
2016-Apr-28 03:32N 38°52' W 077°00'0 0.0
2016-Apr-28 02:30N 38°52' W 077°00'0 0.0
2016-Apr-28 01:31N 38°52' W 077°00'0 0.0
2016-Apr-28 00:31N 38°52' W 077°00'0 0.0
2016-Apr-27 23:32N 38°52' W 077°00'0 0.0
2016-Apr-27 22:33N 38°52' W 077°00'0 0.0
2016-Apr-27 21:33N 38°52' W 077°00'0 0.0
2016-Apr-27 20:31N 38°52' W 077°00'0 0.0
2016-Apr-27 19:32N 38°52' W 077°00'0 0.0
2016-Apr-27 18:33N 38°52' W 077°00'0 0.0
2016-Apr-27 17:33N 38°52' W 077°00'0 0.0
2016-Apr-27 16:31N 38°52' W 077°00'0 0.0
2016-Apr-27 15:31N 38°52' W 077°00'0 0.0
2016-Apr-27 14:32N 38°52' W 077°00'0 0.0
2016-Apr-27 13:33N 38°52' W 077°00'0 0.0
2016-Apr-27 12:31N 38°52' W 077°00'0 0.0
2016-Apr-27 11:32N 38°52' W 077°00'0 0.0
2016-Apr-27 10:32N 38°52' W 077°00'0 0.0
2016-Apr-27 09:33N 38°52' W 077°00'0 0.0
2016-Apr-27 08:33N 38°52' W 077°00'0 0.0
2016-Apr-27 07:31N 38°52' W 077°00'0 0.0
2016-Apr-27 06:31N 38°52' W 077°00'0 0.0
2016-Apr-27 05:32N 38°52' W 077°00'0 0.0
2016-Apr-27 04:33N 38°52' W 077°00'0 0.0
2016-Apr-27 03:33N 38°52' W 077°00'0 0.0
2016-Apr-27 02:31N 38°52' W 077°00'6 6.0
2016-Apr-27 01:33N 38°46' W 077°02'7 7.0
2016-Apr-27 00:33N 38°41' W 077°07'42 4.5
2016-Apr-26 15:11N 38°08' W 076°34'4 6.9
2016-Apr-26 14:33N 38°06' W 076°29'7 6.8
2016-Apr-26 13:31N 38°01' W 076°22'5 5.0
2016-Apr-26 12:33N 38°04' W 076°17'48 6.9
2016-Apr-26 05:33N 38°52' W 076°26'8 7.6
2016-Apr-26 04:33N 38°59' W 076°23'7 7.5
2016-Apr-26 03:33N 39°06' W 076°24'7 6.9
2016-Apr-26 02:33N 39°12' W 076°29'5 4.7
2016-Apr-26 01:30N 39°15' W 076°34'0 0.0
2016-Apr-26 00:33N 39°15' W 076°34'0 0.0
2016-Apr-25 23:31N 39°15' W 076°34'0 0.0
2016-Apr-25 22:32N 39°15' W 076°34'0 0.0
2016-Apr-25 21:33N 39°15' W 076°34'0 0.0
2016-Apr-25 20:33N 39°15' W 076°34'0 0.0
2016-Apr-25 19:31N 39°15' W 076°34'0 0.0
2016-Apr-25 17:15N 39°15' W 076°34'0 0.0
2016-Apr-25 16:30N 39°15' W 076°34'0 0.0
2016-Apr-25 15:25N 39°15' W 076°34'0 0.0
2016-Apr-25 14:31N 39°15' W 076°34'0 0.4
2016-Apr-25 13:33N 39°15' W 076°34'0 0.2
2016-Apr-25 12:32N 39°15' W 076°34'0 0.0
2016-Apr-25 11:33N 39°15' W 076°34'5 4.6
2016-Apr-25 10:33N 39°12' W 076°30'8 8.1
2016-Apr-25 09:33N 39°14' W 076°20'9 8.6
2016-Apr-25 08:34N 39°20' W 076°12'10 9.8
2016-Apr-25 07:31N 39°26' W 076°01'1010.3
2016-Apr-25 06:34N 39°32' W 075°51'1010.3
2016-Apr-25 05:34N 39°33' W 075°37'6 5.6
2016-Apr-25 04:34N 39°38' W 075°34'7 7.4
2016-Apr-25 03:34N 39°45' W 075°30'8 8.0
2016-Apr-25 02:34N 39°50' W 075°22'10 9.7
2016-Apr-25 01:34N 39°53' W 075°10'9 9.0
2016-Apr-25 00:34N 40°00' W 075°03'9 0.6
2016-Apr-24 08:18N 40°05' W 074°52'4 5.7
2016-Apr-24 07:33N 40°03' W 074°58'9 8.5
2016-Apr-24 06:33N 39°58' W 075°07'3 2.9
2016-Apr-24 05:32N 39°56' W 075°08'0 0.0
2016-Apr-24 04:33N 39°56' W 075°08'0 0.1
2016-Apr-24 03:33N 39°55' W 075°08'0 0.2
2016-Apr-24 02:31N 39°55' W 075°08'0 0.0
2016-Apr-24 01:32N 39°55' W 075°08'0 0.0
2016-Apr-24 00:32N 39°55' W 075°08'0 0.0
2016-Apr-23 23:33N 39°55' W 075°08'0 0.0
2016-Apr-23 22:31N 39°55' W 075°08'0 0.1
2016-Apr-23 21:33N 39°55' W 075°08'3 2.8
2016-Apr-23 20:33N 39°53' W 075°10'6 6.0
2016-Apr-23 19:33N 39°51' W 075°17'7 7.1
2016-Apr-23 18:33N 39°48' W 075°25'8 7.6
2016-Apr-23 17:33N 39°42' W 075°31'7 7.0
2016-Apr-23 16:33N 39°35' W 075°33'6 5.8
2016-Apr-23 15:33N 39°33' W 075°40'7 7.1
2016-Apr-23 14:33N 39°32' W 075°50'9 8.7
2016-Apr-23 13:33N 39°27' W 075°59'9 9.2
2016-Apr-23 12:33N 39°22' W 076°09'9 8.5
2016-Apr-23 11:32N 39°14' W 076°14'8 8.1
2016-Apr-23 10:33N 39°08' W 076°20'9 8.6
2016-Apr-23 09:33N 38°59' W 076°23'9 8.6
2016-Apr-23 08:33N 38°51' W 076°26'120 3.6
2016-Apr-21 23:33N 36°51' W 076°18'3 3.3
2016-Apr-21 22:33N 36°48' W 076°18'0 0.0
2016-Apr-21 21:31N 36°48' W 076°18'0 0.0
2016-Apr-21 20:31N 36°48' W 076°18'0 0.0
2016-Apr-21 19:32N 36°48' W 076°18'0 0.0
2016-Apr-21 18:33N 36°48' W 076°18'0 0.0
2016-Apr-21 17:33N 36°48' W 076°18'0 0.0
2016-Apr-21 16:31N 36°48' W 076°18'0 0.0
2016-Apr-21 15:32N 36°48' W 076°18'0 0.0
2016-Apr-21 14:32N 36°48' W 076°18'0 0.0
2016-Apr-21 13:33N 36°48' W 076°18'0 0.0
2016-Apr-21 12:31N 36°48' W 076°18'0 0.0
2016-Apr-21 11:31N 36°48' W 076°18'0 0.0
2016-Apr-21 10:32N 36°48' W 076°18'0 0.0
2016-Apr-21 09:33N 36°48' W 076°18'0 0.0
2016-Apr-21 08:33N 36°48' W 076°18'0 0.0
2016-Apr-21 07:31N 36°48' W 076°18'0 0.0
2016-Apr-21 06:32N 36°48' W 076°18'0 0.0
2016-Apr-21 05:32N 36°48' W 076°18'0 0.0
2016-Apr-21 04:33N 36°48' W 076°18'0 0.0
2016-Apr-21 03:34N 36°48' W 076°18'0 0.0
2016-Apr-21 02:31N 36°48' W 076°18'0 0.0
2016-Apr-21 01:32N 36°48' W 076°18'0 0.0
2016-Apr-21 00:33N 36°48' W 076°18'1 1.5
2016-Apr-20 23:34N 36°49' W 076°17'  

Dump ship's entire track history